Time;durP1;ratioP1;P1;durP2;ratioP2;P2;SDS_P1;SDS_P2;PMS_P1;PMS_P2;Temp;Humidity;BMP_temperature;BMP_pressure;BME280_temperature;BME280_humidity;BME280_pressure;Samples;Min_cycle;Max_cycle;Signal;HPM_P1;HPM_P2
2021/04/11 00:00:20;;;;;;;21.23;15.48;;;;;;;8.73;69.07;100918.34;691075;28;22251;-57
2021/04/11 00:00:42;;;;;;;18.67;15.25;;;;;;;8.71;69.26;100914.09;687522;28;115806;-54
2021/04/11 00:01:03;;;;;;;19.67;15.75;;;;;;;8.71;69.34;100912.25;690902;28;13781;-53
2021/04/11 00:01:24;;;;;;;20.75;15.30;;;;;;;8.72;69.15;100915.81;690658;28;44650;-57
2021/04/11 00:01:45;;;;;;;19.52;14.82;;;;;;;8.71;69.32;100909.56;691133;28;16087;-53
2021/04/11 00:02:07;;;;;;;19.25;15.15;;;;;;;8.69;69.58;100906.19;690593;28;16141;-56
2021/04/11 00:02:28;;;;;;;18.17;14.43;;;;;;;8.70;69.37;100907.88;689937;28;45497;-55
2021/04/11 00:02:49;;;;;;;20.48;14.88;;;;;;;8.69;69.51;100903.50;691247;28;23495;-50
2021/04/11 00:03:14;;;;;;;19.17;14.45;;;;;;;8.70;69.58;100898.94;691812;28;11456;-52
2021/04/11 00:03:35;;;;;;;17.73;14.63;;;;;;;8.69;69.60;100895.41;688976;28;84945;-54
2021/04/11 00:03:57;;;;;;;18.65;14.77;;;;;;;8.70;69.61;100898.94;690540;28;45410;-54
2021/04/11 00:04:18;;;;;;;19.25;14.82;;;;;;;8.70;69.33;100898.94;688708;28;23359;-55
2021/04/11 00:04:39;;;;;;;19.80;14.52;;;;;;;8.70;69.56;100893.56;691307;28;22368;-52
2021/04/11 00:05:00;;;;;;;21.45;15.82;;;;;;;8.71;69.30;100892.56;690768;28;10773;-56
2021/04/11 00:05:24;;;;;;;20.65;15.05;;;;;;;8.70;69.13;100891.72;688125;28;34650;-56
2021/04/11 00:05:51;;;;;;;20.67;15.68;;;;;;;8.71;69.16;100884.50;684154;28;61578;-52
2021/04/11 00:06:13;;;;;;;20.48;15.48;;;;;;;8.71;69.28;100892.56;683722;28;23538;-54
2021/04/11 00:06:34;;;;;;;22.77;16.45;;;;;;;8.71;69.09;100887.19;685414;28;23510;-56
2021/04/11 00:06:55;;;;;;;23.60;15.95;;;;;;;8.71;69.16;100881.78;684548;28;46444;-56
2021/04/11 00:07:17;;;;;;;20.98;15.95;;;;;;;8.71;69.22;100889.88;687917;28;934;-55
2021/04/11 00:07:41;;;;;;;20.25;15.50;;;;;;;8.70;69.14;100878.25;689598;28;13385;-53
2021/04/11 00:08:03;;;;;;;20.42;15.68;;;;;;;8.71;69.40;100879.09;691844;28;4347;-56
2021/04/11 00:08:25;;;;;;;21.05;16.05;;;;;;;8.71;69.11;100879.94;691251;28;1036;-54
2021/04/11 00:08:46;;;;;;;22.27;15.60;;;;;;;8.70;69.06;100882.78;690476;28;40553;-54
2021/04/11 00:09:08;;;;;;;23.88;15.38;;;;;;;8.71;68.83;100877.25;691392;28;18612;-54
2021/04/11 00:09:29;;;;;;;23.63;15.90;;;;;;;8.71;69.08;100868.31;691816;28;6839;-52
2021/04/11 00:09:50;;;;;;;21.52;16.05;;;;;;;8.72;69.09;100870.03;691645;28;14317;-55
2021/04/11 00:10:14;;;;;;;21.05;15.63;;;;;;;8.72;69.08;100878.09;687903;28;21295;-51
2021/04/11 00:10:37;;;;;;;20.05;15.80;;;;;;;8.72;68.82;100867.34;685034;28;113576;-53
2021/04/11 00:11:01;;;;;;;21.35;15.95;;;;;;;8.71;68.90;100868.31;686072;28;69438;-53
2021/04/11 00:11:22;;;;;;;19.80;15.20;;;;;;;8.73;69.07;100869.00;685560;28;93276;-55
2021/04/11 00:11:43;;;;;;;21.45;15.05;;;;;;;8.72;69.17;100870.84;685260;28;16881;-53
2021/04/11 00:12:06;;;;;;;23.52;16.42;;;;;;;8.72;68.85;100870.84;687040;28;22440;-56
2021/04/11 00:12:28;;;;;;;23.75;15.73;;;;;;;8.71;69.13;100862.94;686089;28;69480;-57
2021/04/11 00:12:49;;;;;;;20.15;15.15;;;;;;;8.71;69.10;100869.16;687443;28;45329;-54
2021/04/11 00:13:12;;;;;;;18.98;15.07;;;;;;;8.72;68.91;100862.78;688322;28;22481;-55
2021/04/11 00:13:35;;;;;;;21.67;15.13;;;;;;;8.72;68.85;100868.16;684260;28;69503;-53
2021/04/11 00:13:56;;;;;;;19.30;14.77;;;;;;;8.72;68.82;100865.47;687275;28;44590;-52
2021/04/11 00:14:18;;;;;;;20.58;14.73;;;;;;;8.73;68.68;100867.19;686855;28;44152;-51
2021/04/11 00:14:39;;;;;;;21.73;15.23;;;;;;;8.73;68.81;100856.41;688288;28;22423;-55
2021/04/11 00:15:00;;;;;;;21.95;15.50;;;;;;;8.73;69.15;100859.09;688285;28;23115;-57
2021/04/11 00:15:21;;;;;;;21.60;16.38;;;;;;;8.73;68.98;100864.47;687458;28;45540;-54
2021/04/11 00:15:43;;;;;;;20.50;15.77;;;;;;;8.73;68.92;100863.63;690950;28;21491;-56
2021/04/11 00:16:05;;;;;;;19.77;15.25;;;;;;;8.74;69.15;100868.00;689877;28;22380;-54
2021/04/11 00:16:26;;;;;;;20.05;15.35;;;;;;;8.74;69.10;100870.69;689397;28;66590;-57
2021/04/11 00:16:48;;;;;;;20.50;15.13;;;;;;;8.72;69.06;100862.78;690064;28;22401;-52
2021/04/11 00:17:09;;;;;;;22.05;16.10;;;;;;;8.72;69.26;100861.94;690298;28;22496;-52
2021/04/11 00:17:30;;;;;;;21.17;15.25;;;;;;;8.70;69.49;100864.81;690826;28;37132;-54
2021/04/11 00:17:51;;;;;;;20.70;15.38;;;;;;;8.70;69.41;100862.13;690812;28;21530;-57
2021/04/11 00:18:13;;;;;;;21.63;15.68;;;;;;;8.70;69.44;100864.81;691288;28;21612;-52
2021/04/11 00:18:34;;;;;;;19.33;14.70;;;;;;;8.71;69.33;100860.25;688379;28;20370;-50
2021/04/11 00:18:56;;;;;;;21.63;15.30;;;;;;;8.70;69.33;100862.13;687046;28;31157;-51
2021/04/11 00:19:17;;;;;;;22.75;15.88;;;;;;;8.70;69.20;100862.13;688442;28;10388;-57
2021/04/11 00:19:38;;;;;;;20.45;15.15;;;;;;;8.71;69.48;100855.69;689074;28;4824;-53
2021/04/11 00:19:59;;;;;;;19.42;14.90;;;;;;;8.71;69.53;100861.09;688434;28;23437;-54
2021/04/11 00:20:21;;;;;;;19.55;15.15;;;;;;;8.69;69.60;100856.88;688080;28;22406;-54
2021/04/11 00:20:42;;;;;;;22.55;15.55;;;;;;;8.68;69.40;100856.03;690358;28;44369;-56
2021/04/11 00:21:05;;;;;;;22.58;15.43;;;;;;;8.68;69.43;100856.03;691018;28;16681;-52
2021/04/11 00:21:26;;;;;;;21.08;15.13;;;;;;;8.68;69.50;100853.31;689803;28;63293;-57
2021/04/11 00:21:48;;;;;;;21.98;16.20;;;;;;;8.68;69.57;100856.03;690508;28;45565;-55
2021/04/11 00:22:09;;;;;;;20.20;15.38;;;;;;;8.69;69.36;100864.97;691388;28;21484;-56
2021/04/11 00:22:30;;;;;;;22.17;15.52;;;;;;;8.68;69.13;100858.72;691438;28;14314;-55
2021/04/11 00:22:51;;;;;;;22.20;16.50;;;;;;;8.68;69.53;100860.56;691326;28;15502;-54
2021/04/11 00:23:13;;;;;;;23.25;16.35;;;;;;;8.69;69.45;100862.28;689905;28;47563;-52
2021/04/11 00:23:35;;;;;;;22.48;16.27;;;;;;;8.68;69.43;100861.41;690891;28;22240;-56
2021/04/11 00:23:56;;;;;;;21.90;15.63;;;;;;;8.68;69.40;100860.56;690384;28;44392;-56
2021/04/11 00:24:17;;;;;;;21.65;15.52;;;;;;;8.68;69.36;100855.19;690114;28;22392;-53
2021/04/11 00:24:38;;;;;;;20.95;15.60;;;;;;;8.67;69.38;100865.13;691225;28;23407;-53
2021/04/11 00:24:59;;;;;;;21.20;15.70;;;;;;;8.66;69.59;100866.94;691154;28;21436;-51
2021/04/11 00:25:22;;;;;;;21.20;15.45;;;;;;;8.67;69.70;100862.44;687508;28;46412;-51
2021/04/11 00:25:44;;;;;;;20.38;15.13;;;;;;;8.68;69.58;100864.09;685599;28;69485;-54
2021/04/11 00:26:06;;;;;;;20.38;15.07;;;;;;;8.66;69.67;100866.94;686956;28;46314;-53
2021/04/11 00:26:27;;;;;;;21.30;15.70;;;;;;;8.66;69.55;100864.25;688594;28;14099;-52
2021/04/11 00:26:48;;;;;;;22.23;16.13;;;;;;;8.67;69.39;100867.81;686578;28;44388;-52
2021/04/11 00:27:15;;;;;;;22.60;16.70;;;;;;;8.68;69.34;100872.19;688417;28;60810;-56
2021/04/11 00:27:36;;;;;;;22.40;16.05;;;;;;;8.69;68.95;100863.09;690253;28;10608;-57
2021/04/11 00:27:58;;;;;;;24.00;16.88;;;;;;;8.71;69.06;100877.25;691182;28;23411;-55
2021/04/11 00:28:20;;;;;;;22.33;17.15;;;;;;;8.70;68.99;100872.00;690863;28;24436;-51
2021/04/11 00:28:41;;;;;;;23.58;16.60;;;;;;;8.71;68.86;100868.31;689307;28;46308;-56
2021/04/11 00:29:09;;;;;;;22.58;16.55;;;;;;;8.71;68.70;100860.25;688674;28;60153;-56
2021/04/11 00:29:30;;;;;;;20.95;15.68;;;;;;;8.71;68.85;100861.09;690621;28;19753;-56
2021/04/11 00:29:52;;;;;;;23.15;17.08;;;;;;;8.71;68.82;100857.56;690835;28;22905;-56
2021/04/11 00:30:15;;;;;;;22.83;16.50;;;;;;;8.71;69.08;100857.56;691616;28;965;-52
2021/04/11 00:30:37;;;;;;;24.33;16.95;;;;;;;8.69;68.89;100852.34;691170;28;1317;-58
2021/04/11 00:31:01;;;;;;;22.48;16.90;;;;;;;8.70;68.96;100855.84;690916;28;14985;-53
2021/04/11 00:31:23;;;;;;;21.45;16.35;;;;;;;8.71;69.11;100855.69;691157;28;931;-56
2021/04/11 00:31:44;;;;;;;20.77;15.57;;;;;;;8.70;68.89;100850.47;685320;28;23544;-52
2021/04/11 00:32:06;;;;;;;21.70;16.05;;;;;;;8.70;69.08;100859.41;685813;28;23567;-55
2021/04/11 00:32:27;;;;;;;21.65;16.55;;;;;;;8.70;68.98;100855.84;684533;28;46477;-53
2021/04/11 00:32:49;;;;;;;23.27;16.40;;;;;;;8.70;69.11;100854.03;685509;28;22404;-51
2021/04/11 00:33:22;;;;;;;22.90;16.50;;;;;;;8.70;69.02;100848.66;684112;28;69439;-51
2021/04/11 00:33:43;;;;;;;21.17;15.73;;;;;;;8.70;69.28;100850.47;686349;28;137500;-53
2021/04/11 00:34:04;;;;;;;23.65;16.13;;;;;;;8.70;68.97;100854.03;690587;28;22406;-58
2021/04/11 00:34:26;;;;;;;24.90;17.50;;;;;;;8.70;69.24;100847.78;690760;28;21512;-56
2021/04/11 00:34:47;;;;;;;22.98;17.52;;;;;;;8.70;69.37;100853.16;690867;28;22373;-56
2021/04/11 00:35:09;;;;;;;25.23;17.30;;;;;;;8.70;68.99;100847.78;691368;28;21543;-55
2021/04/11 00:35:30;;;;;;;26.98;17.38;;;;;;;8.69;68.97;100843.41;689687;28;61239;-55
2021/04/11 00:35:57;;;;;;;23.38;16.52;;;;;;;8.65;69.27;100835.66;690758;28;22197;-58
2021/04/11 00:36:18;;;;;;;23.60;17.20;;;;;;;8.69;69.00;100840.72;687567;28;123963;-53
2021/04/11 00:36:40;;;;;;;23.77;17.05;;;;;;;8.68;68.96;100839.88;690262;28;42515;-52
2021/04/11 00:37:01;;;;;;;23.42;17.20;;;;;;;8.68;69.25;100839.88;691886;28;66224;-55
2021/04/11 00:37:22;;;;;;;24.27;17.05;;;;;;;8.69;69.32;100836.19;693096;28;23552;-54
2021/04/11 00:37:44;;;;;;;21.92;16.25;;;;;;;8.69;69.08;100838.03;693421;28;18765;-52
2021/04/11 00:38:05;;;;;;;21.52;15.98;;;;;;;8.70;69.19;100834.31;693249;28;23456;-55
2021/04/11 00:38:27;;;;;;;23.67;17.10;;;;;;;8.71;68.89;100836.00;694092;28;22403;-54
2021/04/11 00:38:48;;;;;;;23.25;17.10;;;;;;;8.71;69.01;100844.09;693148;28;46054;-51
2021/04/11 00:39:09;;;;;;;23.40;16.60;;;;;;;8.70;69.04;100840.56;690314;28;22277;-55
2021/04/11 00:39:31;;;;;;;23.23;16.73;;;;;;;8.70;69.20;100837.00;693118;28;1929;-55
2021/04/11 00:39:52;;;;;;;24.65;16.88;;;;;;;8.70;69.02;100837.00;693040;28;24211;-57
2021/04/11 00:40:18;;;;;;;23.20;16.90;;;;;;;8.69;69.19;100836.19;693131;28;22400;-52
2021/04/11 00:40:39;;;;;;;22.17;16.88;;;;;;;8.69;69.03;100833.47;687187;28;135739;-52
2021/04/11 00:41:04;;;;;;;25.52;17.73;;;;;;;8.70;69.23;100840.56;691174;28;23525;-51
2021/04/11 00:41:29;;;;;;;25.15;17.50;;;;;;;8.69;69.10;100841.56;689811;28;37656;-54
2021/04/11 00:41:52;;;;;;;24.00;17.42;;;;;;;8.68;68.90;100831.78;689026;28;80850;-56
2021/04/11 00:42:19;;;;;;;23.83;16.85;;;;;;;8.69;68.99;100835.34;688611;28;64196;-53
2021/04/11 00:42:43;;;;;;;24.33;17.67;;;;;;;8.69;69.10;100840.72;688219;28;156862;-57
2021/04/11 00:43:07;;;;;;;24.20;17.73;;;;;;;8.70;69.14;100842.41;691161;28;69478;-54
2021/04/11 00:43:28;;;;;;;23.70;17.73;;;;;;;8.70;68.55;100843.25;690814;28;92290;-54
2021/04/11 00:43:50;;;;;;;25.17;17.95;;;;;;;8.69;68.76;100841.56;690543;28;44670;-55
2021/04/11 00:44:12;;;;;;;24.90;17.52;;;;;;;8.69;68.93;100833.47;692521;28;23573;-56
2021/04/11 00:44:36;;;;;;;21.88;17.00;;;;;;;8.70;69.09;100837.00;689909;28;115214;-54
2021/04/11 00:45:08;;;;;;;23.27;16.80;;;;;;;8.69;69.28;100832.66;693872;28;24193;-53
2021/04/11 00:45:36;;;;;;;23.45;16.85;;;;;;;8.69;69.05;100830.78;689043;28;60614;-54
2021/04/11 00:46:05;;;;;;;23.48;17.30;;;;;;;8.66;69.32;100831.13;685892;28;137788;-56
2021/04/11 00:46:32;;;;;;;22.15;16.75;;;;;;;8.68;69.35;100833.66;688402;28;84602;-58
2021/04/11 00:46:55;;;;;;;24.48;17.33;;;;;;;8.70;69.07;100831.63;684953;28;138226;-57
2021/04/11 00:47:16;;;;;;;27.55;17.98;;;;;;;8.69;68.93;100829.97;689974;28;68507;-55
2021/04/11 00:47:39;;;;;;;23.98;17.17;;;;;;;8.68;69.35;100831.78;691635;28;1387;-55
2021/04/11 00:48:01;;;;;;;24.80;17.00;;;;;;;8.69;69.27;100836.19;691512;28;3935;-54
2021/04/11 00:48:25;;;;;;;22.42;16.73;;;;;;;8.68;69.08;100828.25;687513;28;46548;-54
2021/04/11 00:48:46;;;;;;;22.77;17.08;;;;;;;8.69;69.31;100832.66;685370;28;52712;-56
2021/04/11 00:49:10;;;;;;;25.25;18.02;;;;;;;8.67;69.40;100827.44;685572;28;44478;-56
2021/04/11 00:49:35;;;;;;;26.55;17.85;;;;;;;8.66;69.21;100831.94;684202;28;69454;-55
2021/04/11 00:49:56;;;;;;;23.58;17.63;;;;;;;8.66;69.18;100834.63;681305;28;138260;-57
2021/04/11 00:50:18;;;;;;;22.27;16.98;;;;;;;8.68;69.31;100833.66;687153;28;22488;-53
2021/04/11 00:50:39;;;;;;;22.75;17.02;;;;;;;8.66;69.42;100833.81;687566;28;7847;-52
2021/04/11 00:51:03;;;;;;;22.70;16.83;;;;;;;8.67;69.82;100840.91;689657;28;36043;-55
2021/04/11 00:51:27;;;;;;;24.58;17.30;;;;;;;8.66;69.75;100829.25;686857;28;93173;-54
2021/04/11 00:51:48;;;;;;;23.70;17.20;;;;;;;8.65;69.63;100832.97;687994;28;67477;-55
2021/04/11 00:52:11;;;;;;;24.23;17.67;;;;;;;8.64;69.89;100825.91;690051;28;21835;-52
2021/04/11 00:52:32;;;;;;;24.50;18.10;;;;;;;8.63;69.60;100826.88;688309;28;64272;-54
2021/04/11 00:52:54;;;;;;;24.15;17.45;;;;;;;8.64;69.69;100833.13;690314;28;22413;-56
2021/04/11 00:53:15;;;;;;;24.70;16.90;;;;;;;8.64;69.75;100823.19;690802;28;45292;-53
2021/04/11 00:53:37;;;;;;;25.00;17.67;;;;;;;8.64;69.43;100828.59;689884;28;44992;-58
2021/04/11 00:53:59;;;;;;;24.67;17.63;;;;;;;8.64;69.19;100825.06;687447;28;24175;-55
2021/04/11 00:54:20;;;;;;;23.23;17.50;;;;;;;8.63;69.50;100829.59;685371;28;1389;-55
2021/04/11 00:54:42;;;;;;;22.17;16.90;;;;;;;8.63;69.69;100821.50;684376;28;18583;-55
2021/04/11 00:55:04;;;;;;;26.05;17.27;;;;;;;8.62;69.66;100827.91;679975;29;44421;-54
2021/04/11 00:55:27;;;;;;;23.58;16.90;;;;;;;8.62;69.76;100824.34;678932;29;44389;-52
2021/04/11 00:55:50;;;;;;;23.73;16.92;;;;;;;8.62;69.61;100824.34;682385;28;92708;-56
2021/04/11 00:56:14;;;;;;;24.58;17.33;;;;;;;8.61;69.91;100822.69;681365;28;44497;-51
2021/04/11 00:56:38;;;;;;;22.85;16.90;;;;;;;8.61;69.85;100823.53;681559;28;75011;-55
2021/04/11 00:57:00;;;;;;;21.98;16.20;;;;;;;8.61;70.18;100828.91;686669;28;15362;-52
2021/04/11 00:57:22;;;;;;;23.63;17.05;;;;;;;8.62;70.01;100821.66;683288;28;69405;-58
2021/04/11 00:57:44;;;;;;;24.08;17.33;;;;;;;8.61;69.75;100823.53;685210;28;22443;-55
2021/04/11 00:58:05;;;;;;;24.73;18.15;;;;;;;8.60;70.06;100821.81;685134;28;46334;-54
2021/04/11 00:58:26;;;;;;;25.00;17.95;;;;;;;8.60;70.04;100829.91;688848;28;22406;-55
2021/04/11 00:58:48;;;;;;;23.88;16.55;;;;;;;8.61;69.89;100822.69;689343;28;44386;-56
2021/04/11 00:59:10;;;;;;;25.05;16.95;;;;;;;8.60;69.93;100823.69;691288;28;21548;-55
2021/04/11 00:59:33;;;;;;;23.25;16.73;;;;;;;8.59;69.85;100828.25;689598;28;92306;-55
2021/04/11 00:59:54;;;;;;;23.35;17.10;;;;;;;8.60;70.01;100818.31;690554;28;23579;-55
2021/04/11 01:00:17;;;;;;;23.35;16.98;;;;;;;8.60;69.94;100823.69;689521;28;46296;-55
2021/04/11 01:00:38;;;;;;;22.50;16.73;;;;;;;8.60;70.09;100821.81;689749;28;45236;-52
2021/04/11 01:01:00;;;;;;;22.63;16.58;;;;;;;8.59;69.94;100822.00;690467;28;39516;-51
2021/04/11 01:01:22;;;;;;;22.83;16.40;;;;;;;8.58;70.05;100823.84;690562;28;23544;-56
2021/04/11 01:01:44;;;;;;;22.90;16.42;;;;;;;8.57;70.37;100819.47;689369;28;56248;-54
2021/04/11 01:02:07;;;;;;;22.05;16.15;;;;;;;8.58;70.28;100814.94;686859;28;46489;-53
2021/04/11 01:02:29;;;;;;;22.90;16.95;;;;;;;8.56;70.44;100812.41;683616;28;69492;-54
2021/04/11 01:02:50;;;;;;;21.90;16.67;;;;;;;8.55;70.62;100816.09;684546;28;21046;-52
2021/04/11 01:03:15;;;;;;;21.90;16.92;;;;;;;8.55;70.48;100816.09;684405;28;23551;-52
2021/04/11 01:03:39;;;;;;;22.85;17.02;;;;;;;8.55;70.73;100810.72;685603;28;115259;-52
2021/04/11 01:04:00;;;;;;;22.52;16.45;;;;;;;8.56;70.51;100814.25;689561;28;90361;-56
2021/04/11 01:04:23;;;;;;;22.38;16.65;;;;;;;8.55;70.32;100804.50;690657;28;67481;-55
2021/04/11 01:04:45;;;;;;;22.52;16.45;;;;;;;8.55;70.54;100816.09;687225;28;46434;-57
2021/04/11 01:05:15;;;;;;;24.75;17.02;;;;;;;8.55;70.52;100816.09;685355;28;22379;-53
2021/04/11 01:05:41;;;;;;;23.38;17.40;;;;;;;8.54;70.82;100817.13;678976;28;137927;-55
2021/04/11 01:06:05;;;;;;;24.10;16.83;;;;;;;8.55;70.60;100818.78;678011;28;138185;-53
2021/04/11 01:06:30;;;;;;;24.50;17.55;;;;;;;8.54;70.81;100816.25;683996;28;93191;-51
2021/04/11 01:06:53;;;;;;;22.95;16.65;;;;;;;8.53;70.78;100820.81;684184;28;114395;-52
2021/04/11 01:07:15;;;;;;;22.40;16.40;;;;;;;8.53;71.26;100811.91;685063;28;67476;-53
2021/04/11 01:07:41;;;;;;;22.30;16.85;;;;;;;8.53;71.07;100822.66;682172;28;38780;-53
2021/04/11 01:08:10;;;;;;;23.08;16.77;;;;;;;8.53;71.09;100817.28;682874;28;68366;-53
2021/04/11 01:08:33;;;;;;;23.02;17.00;;;;;;;8.52;71.01;100812.88;678460;28;137875;-51
2021/04/11 01:08:56;;;;;;;21.77;16.15;;;;;;;8.52;71.19;100816.41;684200;28;62316;-51
2021/04/11 01:09:21;;;;;;;22.85;16.40;;;;;;;8.53;70.88;100811.91;681800;28;90838;-53
2021/04/11 01:09:45;;;;;;;25.77;17.23;;;;;;;8.53;70.78;100810.03;684689;28;112205;-54
2021/04/11 01:10:09;;;;;;;24.73;18.05;;;;;;;8.52;70.78;100813.72;685557;28;88839;-55
2021/04/11 01:10:33;;;;;;;25.15;18.02;;;;;;;8.52;70.69;100810.19;686164;28;83911;-52
2021/04/11 01:10:59;;;;;;;24.27;17.85;;;;;;;8.52;70.96;100816.41;683113;28;90729;-55
2021/04/11 01:11:24;;;;;;;22.83;16.55;;;;;;;8.52;70.97;100810.19;686568;28;129974;-52
2021/04/11 01:11:45;;;;;;;24.30;16.63;;;;;;;8.52;70.92;100810.19;687870;28;106494;-52
2021/04/11 01:12:10;;;;;;;24.77;17.67;;;;;;;8.52;70.93;100804.81;687579;28;21506;-55
2021/04/11 01:12:34;;;;;;;24.42;17.50;;;;;;;8.53;70.70;100810.03;683602;28;136481;-56
2021/04/11 01:12:55;;;;;;;23.48;17.38;;;;;;;8.53;70.77;100811.91;685879;28;67220;-51
2021/04/11 01:13:16;;;;;;;23.67;17.67;;;;;;;8.53;70.80;100809.22;687774;28;15466;-53
2021/04/11 01:13:43;;;;;;;23.17;17.33;;;;;;;8.53;70.80;100801.97;687921;28;22510;-53
2021/04/11 01:14:05;;;;;;;23.52;16.40;;;;;;;8.54;70.76;100809.03;681830;28;137880;-57
2021/04/11 01:14:30;;;;;;;24.85;17.02;;;;;;;8.54;70.70;100810.88;684581;28;93259;-52
2021/04/11 01:14:52;;;;;;;24.58;17.10;;;;;;;8.54;70.53;100803.66;685715;28;92164;-55
2021/04/11 01:15:21;;;;;;;24.42;18.02;;;;;;;8.54;70.77;100808.19;684888;28;113361;-55
2021/04/11 01:15:43;;;;;;;25.45;17.80;;;;;;;8.54;70.80;100813.56;684761;28;115014;-57
2021/04/11 01:16:05;;;;;;;23.30;17.40;;;;;;;8.53;70.55;100799.28;688958;28;41823;-55
2021/04/11 01:16:27;;;;;;;23.33;17.02;;;;;;;8.54;70.88;100808.19;689720;28;45405;-56
2021/04/11 01:16:50;;;;;;;23.52;17.05;;;;;;;8.54;70.83;100808.19;684255;28;91046;-53
2021/04/11 01:17:15;;;;;;;23.00;16.90;;;;;;;8.54;71.03;100805.50;687225;28;45335;-54
2021/04/11 01:17:39;;;;;;;24.52;17.30;;;;;;;8.53;71.27;100799.28;683028;28;137481;-50
2021/04/11 01:18:00;;;;;;;24.08;17.05;;;;;;;8.53;71.16;100804.66;684672;28;38510;-53
2021/04/11 01:18:22;;;;;;;23.23;16.95;;;;;;;8.52;70.96;100800.25;684557;28;23461;-51
2021/04/11 01:18:43;;;;;;;24.20;17.65;;;;;;;8.53;70.99;100803.81;683234;28;46507;-51
2021/04/11 01:19:08;;;;;;;25.75;17.88;;;;;;;8.53;71.26;100803.81;679780;29;68360;-53
2021/04/11 01:19:32;;;;;;;24.27;17.75;;;;;;;8.52;71.02;100805.66;679966;28;69519;-55
2021/04/11 01:19:54;;;;;;;23.73;16.92;;;;;;;8.54;70.96;100802.78;681374;28;92087;-52
2021/04/11 01:20:22;;;;;;;25.25;17.90;;;;;;;8.54;70.89;100805.50;680052;28;160945;-52
2021/04/11 01:20:44;;;;;;;27.45;18.50;;;;;;;8.55;70.55;100809.88;682187;28;92445;-55
2021/04/11 01:21:12;;;;;;;25.15;18.60;;;;;;;8.54;70.31;100806.34;685574;28;18284;-52
2021/04/11 01:21:41;;;;;;;27.00;18.95;;;;;;;8.54;70.51;100797.41;676870;29;137928;-53
2021/04/11 01:22:11;;;;;;;26.52;18.17;;;;;;;8.52;70.77;100800.25;678865;28;138139;-53
2021/04/11 01:22:40;;;;;;;22.97;17.70;;;;;;;8.54;70.69;100802.78;679425;28;138649;-53
2021/04/11 01:23:21;;;;;;;23.15;17.58;;;;;;;8.52;70.69;100799.44;682568;28;137858;-52
2021/04/11 01:23:46;;;;;;;24.45;18.05;;;;;;;8.51;70.71;100803.97;686904;28;137446;-56
2021/04/11 01:24:14;;;;;;;25.00;18.17;;;;;;;8.52;70.95;100802.13;687179;28;115062;-52
2021/04/11 01:24:46;;;;;;;25.02;17.80;;;;;;;8.51;70.89;100795.91;686894;28;60407;-53
2021/04/11 01:25:14;;;;;;;23.13;17.90;;;;;;;8.50;70.92;100799.59;684327;28;108216;-55
2021/04/11 01:25:37;;;;;;;26.90;18.75;;;;;;;8.52;70.84;100799.44;683983;28;138743;-56
2021/04/11 01:26:00;;;;;;;26.95;18.83;;;;;;;8.52;70.88;100797.56;686715;28;46368;-53
2021/04/11 01:26:22;;;;;;;24.77;18.60;;;;;;;8.53;70.88;100795.75;686184;28;67607;-54
2021/04/11 01:26:46;;;;;;;26.10;18.50;;;;;;;8.52;70.58;100802.97;692838;28;31590;-51
2021/04/11 01:27:08;;;;;;;25.65;18.33;;;;;;;8.52;70.77;100797.56;685041;28;89023;-56
2021/04/11 01:27:31;;;;;;;27.40;19.23;;;;;;;8.52;70.49;100792.19;688130;28;23493;-54
2021/04/11 01:27:55;;;;;;;26.17;18.55;;;;;;;8.53;70.83;100795.75;686300;28;79937;-55
2021/04/11 01:28:19;;;;;;;24.95;18.20;;;;;;;8.53;70.79;100796.56;685851;28;92307;-55
2021/04/11 01:28:43;;;;;;;28.17;18.02;;;;;;;8.52;71.01;100800.25;681483;28;115256;-55
2021/04/11 01:29:06;;;;;;;25.75;18.52;;;;;;;8.53;71.01;100798.44;687990;28;69452;-54
2021/04/11 01:29:27;;;;;;;26.13;18.42;;;;;;;8.53;70.68;100791.19;691348;28;1069;-55
2021/04/11 01:29:51;;;;;;;22.52;17.40;;;;;;;8.53;70.87;100793.06;688920;28;92367;-54
2021/04/11 01:30:19;;;;;;;25.23;18.35;;;;;;;8.52;70.80;100792.19;685807;28;69546;-57
2021/04/11 01:30:47;;;;;;;27.67;18.70;;;;;;;8.52;70.88;100791.34;686045;28;84369;-54
2021/04/11 01:31:09;;;;;;;28.05;20.13;;;;;;;8.52;70.87;100792.19;685901;28;65577;-53
2021/04/11 01:31:31;;;;;;;24.35;19.27;;;;;;;8.52;70.52;100799.44;687192;28;45358;-55
2021/04/11 01:31:53;;;;;;;24.92;18.75;;;;;;;8.51;70.76;100793.22;684457;28;35162;-55
2021/04/11 01:32:14;;;;;;;26.02;19.17;;;;;;;8.52;70.52;100792.19;687620;28;37609;-51
2021/04/11 01:32:36;;;;;;;28.52;19.42;;;;;;;8.50;70.64;100788.81;687916;28;21620;-52
2021/04/11 01:32:57;;;;;;;27.88;19.70;;;;;;;8.52;70.50;100794.88;688421;28;40572;-54
2021/04/11 01:33:21;;;;;;;27.45;19.48;;;;;;;8.53;70.45;100787.66;687255;28;34196;-52
2021/04/11 01:33:49;;;;;;;27.48;19.98;;;;;;;8.54;70.63;100794.72;688279;28;60778;-54
2021/04/11 01:34:11;;;;;;;27.00;19.08;;;;;;;8.53;70.61;100791.19;687339;28;37854;-55
2021/04/11 01:34:33;;;;;;;26.75;18.90;;;;;;;8.53;70.73;100793.06;687246;28;34527;-54
2021/04/11 01:34:56;;;;;;;27.33;19.65;;;;;;;8.53;70.48;100791.19;687557;28;36946;-54
2021/04/11 01:35:19;;;;;;;28.10;20.10;;;;;;;8.54;70.38;100787.50;685971;28;69473;-52
2021/04/11 01:35:41;;;;;;;27.27;19.40;;;;;;;8.55;70.13;100788.34;686307;28;69459;-55
2021/04/11 01:36:04;;;;;;;27.17;18.90;;;;;;;8.55;70.51;100785.66;685539;28;43622;-52
2021/04/11 01:36:27;;;;;;;24.08;18.05;;;;;;;8.54;70.43;100787.50;683303;28;70278;-53
2021/04/11 01:36:49;;;;;;;24.05;18.00;;;;;;;8.55;70.62;100783.78;683129;28;69441;-54
2021/04/11 01:37:15;;;;;;;26.15;18.92;;;;;;;8.54;70.63;100787.50;684223;28;89042;-56
2021/04/11 01:37:36;;;;;;;28.13;19.05;;;;;;;8.54;70.51;100787.50;684392;28;115430;-54
2021/04/11 01:37:59;;;;;;;28.48;19.23;;;;;;;8.55;70.68;100780.25;687170;28;45315;-56
2021/04/11 01:38:21;;;;;;;28.38;18.95;;;;;;;8.55;70.48;100778.41;688173;28;69518;-57
2021/04/11 01:38:45;;;;;;;26.05;18.80;;;;;;;8.55;70.54;100785.66;687104;28;46420;-53
2021/04/11 01:39:10;;;;;;;25.05;18.58;;;;;;;8.55;70.58;100785.66;683615;28;89997;-54
2021/04/11 01:39:35;;;;;;;25.70;19.25;;;;;;;8.54;70.64;100783.94;676780;29;114375;-54
2021/04/11 01:39:57;;;;;;;27.50;19.85;;;;;;;8.53;71.13;100790.38;678165;28;113586;-56
2021/04/11 01:40:26;;;;;;;29.05;19.73;;;;;;;8.52;70.97;100783.28;681861;28;45267;-56
2021/04/11 01:40:51;;;;;;;26.05;19.00;;;;;;;8.52;70.85;100778.72;677345;29;138033;-55
2021/04/11 01:41:19;;;;;;;29.35;19.42;;;;;;;8.53;70.92;100780.44;677208;29;115172;-58
2021/04/11 01:41:42;;;;;;;26.77;19.45;;;;;;;8.52;70.80;100781.41;679138;28;160564;-56
2021/04/11 01:42:05;;;;;;;25.58;18.50;;;;;;;8.51;70.80;100778.91;682379;28;90703;-54
2021/04/11 01:42:26;;;;;;;26.85;18.60;;;;;;;8.51;70.85;100781.59;681332;28;69432;-55
2021/04/11 01:42:48;;;;;;;27.42;18.63;;;;;;;8.51;70.88;100782.44;684994;28;22677;-52
2021/04/11 01:43:12;;;;;;;25.60;18.45;;;;;;;8.51;70.82;100782.44;685261;28;60603;-57
2021/04/11 01:43:37;;;;;;;24.23;18.20;;;;;;;8.51;71.01;100781.59;683216;28;77720;-53
2021/04/11 01:44:01;;;;;;;26.30;19.20;;;;;;;8.51;70.86;100778.91;678947;28;138187;-52
2021/04/11 01:44:25;;;;;;;25.30;18.88;;;;;;;8.51;71.21;100778.91;681137;28;46410;-56
2021/04/11 01:44:48;;;;;;;25.88;18.88;;;;;;;8.51;71.03;100782.44;679623;28;116072;-53
2021/04/11 01:45:12;;;;;;;25.73;19.13;;;;;;;8.51;71.12;100769.00;680138;28;84808;-55
2021/04/11 01:45:35;;;;;;;26.77;19.67;;;;;;;8.50;70.93;100772.69;684022;28;90374;-54
2021/04/11 01:45:57;;;;;;;26.58;19.27;;;;;;;8.51;70.95;100777.06;687359;28;69556;-54
2021/04/11 01:46:19;;;;;;;25.35;18.70;;;;;;;8.50;70.99;100775.38;688069;28;44211;-51
2021/04/11 01:46:41;;;;;;;25.02;18.70;;;;;;;8.50;71.15;100778.06;689470;28;46367;-52
2021/04/11 01:47:03;;;;;;;25.40;18.08;;;;;;;8.50;71.01;100775.38;686797;28;46362;-57